Calico Ridge, Nevada
Current Conditions -  °F | °C
As of 10:35 PM on Wednesday 26 Nov 2014 (Local Time) from KBVU Reporting Station
Clear Clear  
Wind Chill: 46°   Ceiling: Unl
Heat Index: 48°   Visibility: 10mi
Dew Point: 19°   Wind: 6mph
Humidity: 32%   Direction: 330°NNW
Pressure: 30.33"   Gusts: NA
Location:  36.0603°N, 114.956°W
Report Text: KBVU 270635Z AUTO 33005KT 10SM CLR 09/M07 A3033 RMK AO2
Loading
Personal Weather Stations






























Interactive Weather Map New forecast layout! Learn more

10-Day Weather Forecast

Advertisements
Track Severe Weather on mobile